Flight Track Log - Related Links

Times and Time Zones

All times are in EDT time to prevent confusion due to time zone crossing. See the CHH7749 flight status page for this flight to view local times or setup timezone preferences in your user account.

Time Position Orientation Groundspeed Altitude Reporting Facility
EDT Latitude Longitude Course Direction KTS MPH feet Rate Location/Type
11:03AM 20.0516 111.1437 43° Northeast  Level Estimated
11:04AM 20.1242 111.2166 43° Northeast  Level Estimated
11:05AM 20.1966 111.2897 43° Northeast  Level Estimated
11:06AM 20.2691 111.3628 43° Northeast  Level Estimated
11:07AM 20.3415 111.4359 43° Northeast  Level Estimated
11:08AM 20.4139 111.5091 43° Northeast  Level Estimated
11:09AM 20.4862 111.5824 43° Northeast  Level Estimated
11:10AM 20.5585 111.6558 44° Northeast  Level Estimated
11:11AM 20.6308 111.7292 44° Northeast  Level Estimated
11:12AM 20.7031 111.8027 44° Northeast  Level Estimated
11:13AM 20.7753 111.8763 44° Northeast  Level Estimated
11:14AM 20.8475 111.9500 44° Northeast  Level Estimated
11:15AM 20.9197 112.0237 44° Northeast  Level Estimated
11:16AM 20.9918 112.0975 44° Northeast  Level Estimated
11:17AM 21.0639 112.1713 44° Northeast  Level Estimated
11:18AM 21.1360 112.2453 44° Northeast  Level Estimated
11:19AM 21.2080 112.3193 44° Northeast  Level Estimated
11:20AM 21.2801 112.3933 44° Northeast  Level Estimated
11:21AM 21.3520 112.4675 44° Northeast  Level Estimated
11:22AM 21.4240 112.5417 44° Northeast  Level Estimated
11:23AM 21.4959 112.6160 44° Northeast  Level Estimated
11:24AM 21.5678 112.6904 44° Northeast  Level Estimated
11:25AM 21.6396 112.7648 44° Northeast  Level Estimated
11:26AM 21.7114 112.8393 44° Northeast  Level Estimated
11:27AM 21.7832 112.9139 44° Northeast  Level Estimated
11:28AM 21.8549 112.9886 44° Northeast  Level Estimated
11:29AM 21.9266 113.0633 44° Northeast  Level Estimated
11:30AM 21.9983 113.1381 44° Northeast  Level Estimated
11:31AM 22.0700 113.2130 44° Northeast  Level Estimated
11:32AM 22.1416 113.2880 44° Northeast  Level Estimated
11:33AM 22.2131 113.3630 44° Northeast  Level Estimated
11:34AM 22.2847 113.4382 44° Northeast  Level Estimated
11:35AM 22.3562 113.5134 44° Northeast  Level Estimated
11:36AM 22.4276 113.5886 44° Northeast  Level Estimated
11:37AM 22.4991 113.6640 44° Northeast  Level Estimated
11:38AM 22.5705 113.7394 44° Northeast  Level Estimated
11:39AM 22.6395 113.8124 44° Northeast  Level Estimated
11:40AM 22.6395 113.8124 North  Level Estimated
11:41AM 22.6395 113.8124 North  Level Estimated
11:42AM 22.6395 113.8124 North  Level Estimated
11:43AM 22.6395 113.8124 North  Level Estimated
11:44AM 22.6395 113.8124 North  Level Estimated
11:45AM 22.6395 113.8124 North  Level Estimated
11:46AM 22.6395 113.8124 North  Level Estimated
11:47AM 22.6395 113.8124 North  Level Estimated
11:48AM 22.6395 113.8124 North  Level Estimated
11:49AM 22.6395 113.8124 North  Level Estimated
11:50AM 22.6395 113.8124 North  Level Estimated
11:51AM 22.6395 113.8124 North  Level Estimated
11:52AM 22.6395 113.8124 North  Level Estimated
11:53AM 22.6395 113.8124 North  Level Estimated
11:54AM 22.6395 113.8124 North  Level Estimated
11:55AM 22.6395 113.8124 North  Level Estimated

Login

Don't have an account? Register now (free) for customized features, flight alerts, and more!